createdAt,value
2022-12-09T00:01:31.942Z,9.57
2022-12-09T00:04:05.710Z,9.37
2022-12-09T00:06:35.248Z,12.70
2022-12-09T00:09:07.470Z,11.53
2022-12-09T00:11:41.129Z,10.63
2022-12-09T00:14:14.057Z,12.47
2022-12-09T00:16:43.255Z,13.87
2022-12-09T00:19:16.897Z,9.37
2022-12-09T00:21:48.817Z,11.00
2022-12-09T00:24:28.284Z,11.77
2022-12-09T00:26:58.753Z,11.27
2022-12-09T00:29:28.732Z,12.03
2022-12-09T00:32:00.382Z,9.93
2022-12-09T00:34:37.661Z,10.60
2022-12-09T00:37:12.176Z,8.27
2022-12-09T00:39:46.977Z,8.37
2022-12-09T00:42:18.753Z,9.67
2022-12-09T00:44:51.170Z,8.20
2022-12-09T00:47:24.753Z,9.57
2022-12-09T00:49:56.078Z,8.53
2022-12-09T00:52:28.354Z,8.10
2022-12-09T00:55:01.028Z,8.90
2022-12-09T00:57:42.560Z,7.77
2022-12-09T01:00:13.321Z,7.20
2022-12-09T01:02:43.514Z,11.87
2022-12-09T01:05:15.562Z,8.87
2022-12-09T01:07:46.101Z,7.80
2022-12-09T01:10:21.339Z,7.60
2022-12-09T01:12:52.648Z,8.77
2022-12-09T01:15:28.374Z,7.53
2022-12-09T01:18:00.206Z,8.90
2022-12-09T01:20:32.533Z,8.60
2022-12-09T01:23:01.802Z,8.90
2022-12-09T01:25:35.432Z,8.27
2022-12-09T01:28:06.188Z,9.70
2022-12-09T01:30:39.641Z,14.13
2022-12-09T01:33:11.247Z,11.57
2022-12-09T01:35:41.699Z,11.67
2022-12-09T01:38:10.148Z,11.57
2022-12-09T01:40:47.091Z,11.17
2022-12-09T01:43:21.523Z,11.33
2022-12-09T01:45:51.849Z,11.73
2022-12-09T01:48:22.586Z,11.87
2022-12-09T01:50:55.517Z,10.23
2022-12-09T01:53:29.615Z,9.87
2022-12-09T01:56:07.098Z,10.47
2022-12-09T01:58:36.230Z,12.80
2022-12-09T02:01:04.855Z,10.67
2022-12-09T02:03:33.116Z,12.17
2022-12-09T02:06:01.445Z,12.47
2022-12-09T02:08:34.043Z,10.30
2022-12-09T02:11:16.640Z,11.17
2022-12-09T02:13:58.466Z,9.43
2022-12-09T02:16:34.441Z,9.73
2022-12-09T02:19:23.300Z,10.47
2022-12-09T02:22:01.758Z,9.00
2022-12-09T02:24:47.098Z,9.10
2022-12-09T02:27:25.344Z,9.77
2022-12-09T02:30:09.657Z,8.90
2022-12-09T02:33:12.709Z,11.93
2022-12-09T02:35:47.697Z,10.93
2022-12-09T02:38:24.582Z,10.37
2022-12-09T02:41:03.377Z,8.37
2022-12-09T02:43:37.466Z,9.87
2022-12-09T02:46:17.499Z,10.03
2022-12-09T02:48:54.133Z,10.03
2022-12-09T02:51:37.886Z,12.30
2022-12-09T02:54:12.490Z,9.73
2022-12-09T02:56:43.606Z,9.20
2022-12-09T02:59:15.829Z,10.60
2022-12-09T03:02:02.277Z,9.03
2022-12-09T03:04:33.571Z,9.43
2022-12-09T03:07:20.629Z,10.53
2022-12-09T03:09:57.344Z,11.33
2022-12-09T03:12:37.403Z,13.70
2022-12-09T03:15:11.970Z,9.30
2022-12-09T03:17:47.285Z,8.80
2022-12-09T03:20:21.284Z,9.60
2022-12-09T03:22:53.841Z,8.33
2022-12-09T03:25:27.933Z,10.93
2022-12-09T03:28:06.160Z,9.23
2022-12-09T03:30:39.698Z,10.83
2022-12-09T03:33:10.402Z,11.33
2022-12-09T03:35:44.595Z,9.40
2022-12-09T03:38:20.493Z,9.50
2022-12-09T03:40:56.406Z,11.57
2022-12-09T03:43:35.976Z,10.80
2022-12-09T03:46:09.586Z,12.33
2022-12-09T03:48:41.349Z,10.17
2022-12-09T03:51:19.136Z,11.13
2022-12-09T03:54:02.647Z,11.63
2022-12-09T03:56:39.181Z,14.97
2022-12-09T03:59:13.794Z,11.47
2022-12-09T04:01:51.738Z,10.30
2022-12-09T04:04:23.586Z,11.93
2022-12-09T04:06:55.835Z,13.73
2022-12-09T04:09:31.440Z,12.90
2022-12-09T04:12:07.760Z,11.00
2022-12-09T04:14:37.094Z,11.50
2022-12-09T04:17:26.482Z,12.23
2022-12-09T04:19:54.532Z,10.80
2022-12-09T04:22:23.515Z,11.83
2022-12-09T04:24:57.936Z,13.33
2022-12-09T04:27:26.918Z,10.77
2022-12-09T04:29:55.468Z,10.37
2022-12-09T04:32:23.944Z,11.53
2022-12-09T04:34:52.312Z,10.77
2022-12-09T04:37:20.669Z,10.63
2022-12-09T04:39:48.669Z,10.07
2022-12-09T04:42:18.929Z,12.20
2022-12-09T04:44:48.128Z,11.53
2022-12-09T04:47:17.271Z,10.00
2022-12-09T04:49:46.516Z,10.37
2022-12-09T04:52:26.358Z,10.27
2022-12-09T04:54:56.559Z,10.10
2022-12-09T04:57:28.501Z,10.33
2022-12-09T05:00:03.111Z,12.63
2022-12-09T05:02:40.455Z,10.77
2022-12-09T05:05:10.859Z,10.67
2022-12-09T05:07:42.295Z,12.67
2022-12-09T05:10:12.085Z,12.77
2022-12-09T05:12:45.915Z,18.60
2022-12-09T05:15:18.982Z,17.00
2022-12-09T05:17:49.083Z,14.83
2022-12-09T05:20:19.944Z,15.83
2022-12-09T05:22:48.360Z,16.47
2022-12-09T05:25:16.375Z,15.07
2022-12-09T05:27:48.866Z,15.97
2022-12-09T05:30:17.942Z,13.90
2022-12-09T05:32:47.010Z,13.67
2022-12-09T05:35:15.383Z,13.30
2022-12-09T05:37:43.719Z,14.80
2022-12-09T05:40:12.492Z,15.87
2022-12-09T05:42:42.157Z,15.80
2022-12-09T05:45:13.268Z,13.10
2022-12-09T05:47:42.666Z,13.23
2022-12-09T05:50:13.888Z,14.67
2022-12-09T05:52:45.003Z,15.80
2022-12-09T05:55:14.195Z,13.53
2022-12-09T05:57:47.670Z,17.97
2022-12-09T06:00:23.241Z,15.30
2022-12-09T06:02:53.302Z,15.10
2022-12-09T06:05:37.236Z,15.77
2022-12-09T06:08:10.039Z,14.80
2022-12-09T06:10:44.200Z,17.00
2022-12-09T06:13:27.352Z,14.10
2022-12-09T06:16:13.807Z,13.97
2022-12-09T06:18:47.751Z,13.57
2022-12-09T06:21:19.063Z,14.57
2022-12-09T06:23:48.330Z,14.00
2022-12-09T06:26:19.093Z,14.97
2022-12-09T06:28:51.462Z,16.03
2022-12-09T06:31:43.519Z,16.40
2022-12-09T06:37:02.105Z,19.27
2022-12-09T06:39:32.025Z,17.30
2022-12-09T06:42:06.845Z,17.03
2022-12-09T06:44:40.946Z,15.87
2022-12-09T06:47:13.986Z,17.30
2022-12-09T06:49:48.776Z,14.70
2022-12-09T06:52:20.831Z,19.90
2022-12-09T06:54:51.168Z,15.57
2022-12-09T06:57:23.385Z,16.17
2022-12-09T06:59:54.460Z,16.77
2022-12-09T07:02:34.064Z,15.17
2022-12-09T07:05:08.168Z,15.93
2022-12-09T07:07:37.513Z,17.27
2022-12-09T07:10:15.219Z,18.13
2022-12-09T07:12:44.143Z,15.37
2022-12-09T07:15:14.090Z,18.77
2022-12-09T07:17:45.634Z,16.60
2022-12-09T07:20:17.876Z,16.30
2022-12-09T07:22:53.845Z,16.60
2022-12-09T07:25:22.201Z,15.93
2022-12-09T07:27:51.787Z,16.37
2022-12-09T07:30:22.684Z,15.13
2022-12-09T07:32:58.147Z,15.33
2022-12-09T07:35:27.620Z,18.50
2022-12-09T07:37:58.048Z,18.07
2022-12-09T07:40:27.233Z,15.27
2022-12-09T07:43:00.783Z,15.90
2022-12-09T07:45:30.228Z,16.77
2022-12-09T07:48:01.536Z,20.37
2022-12-09T07:50:33.864Z,19.47
2022-12-09T07:53:02.685Z,21.00
2022-12-09T07:55:36.319Z,22.10
2022-12-09T07:58:05.737Z,17.50
2022-12-09T08:00:38.476Z,21.53
2022-12-09T08:03:08.142Z,16.23
2022-12-09T08:05:36.986Z,16.93
2022-12-09T08:08:05.822Z,15.83
2022-12-09T08:10:36.240Z,17.00
2022-12-09T08:13:06.760Z,14.67
2022-12-09T08:15:35.215Z,15.87
2022-12-09T08:18:04.779Z,16.93
2022-12-09T08:20:34.685Z,15.60
2022-12-09T08:23:03.508Z,19.83
2022-12-09T08:25:31.678Z,16.73
2022-12-09T08:28:00.295Z,17.37
2022-12-09T08:30:28.790Z,17.27
2022-12-09T08:32:58.052Z,16.00
2022-12-09T08:35:29.973Z,14.70
2022-12-09T08:37:59.500Z,16.83
2022-12-09T08:40:27.964Z,17.93
2022-12-09T08:42:57.380Z,16.80
2022-12-09T08:45:26.195Z,17.83
2022-12-09T08:47:57.288Z,15.10
2022-12-09T08:50:26.449Z,15.30
2022-12-09T08:52:56.858Z,14.60
2022-12-09T08:55:27.119Z,14.83
2022-12-09T08:57:56.042Z,15.40
2022-12-09T09:00:26.045Z,13.83
2022-12-09T09:02:54.806Z,11.97
2022-12-09T09:05:23.203Z,11.30
2022-12-09T09:07:51.425Z,10.97
2022-12-09T09:10:19.792Z,11.17
2022-12-09T09:12:49.509Z,11.80
2022-12-09T09:15:18.081Z,11.27
2022-12-09T09:17:51.243Z,11.13
2022-12-09T09:20:20.056Z,10.97
2022-12-09T09:22:48.416Z,10.80
2022-12-09T09:25:16.995Z,11.80
2022-12-09T09:27:45.308Z,10.60
2022-12-09T09:30:15.968Z,11.10
2022-12-09T09:32:44.617Z,12.33
2022-12-09T09:35:12.889Z,10.83
2022-12-09T09:40:43.102Z,12.13
2022-12-09T09:43:17.582Z,12.23
2022-12-09T09:45:47.974Z,12.37
2022-12-09T09:48:21.637Z,13.87
2022-12-09T09:50:55.066Z,14.77
2022-12-09T09:53:26.841Z,12.53
2022-12-09T09:56:00.035Z,12.00
2022-12-09T09:58:38.358Z,12.10
2022-12-09T10:01:13.423Z,11.67
2022-12-09T10:03:54.312Z,10.83
2022-12-09T10:06:32.186Z,10.70
2022-12-09T10:09:06.034Z,9.37
2022-12-09T10:11:41.975Z,10.93
2022-12-09T10:14:16.462Z,11.03
2022-12-09T10:17:02.284Z,10.37
2022-12-09T10:19:33.842Z,9.67
2022-12-09T10:22:12.912Z,11.20
2022-12-09T10:24:48.495Z,10.20
2022-12-09T10:27:29.106Z,9.83
2022-12-09T10:30:02.885Z,8.87
2022-12-09T10:32:36.595Z,9.60
2022-12-09T10:35:15.446Z,10.23
2022-12-09T10:37:44.548Z,10.00
2022-12-09T10:40:22.977Z,12.97
2022-12-09T10:43:10.950Z,9.53
2022-12-09T10:48:44.806Z,9.53
2022-12-09T10:51:18.614Z,9.10
2022-12-09T10:53:56.825Z,9.70
2022-12-09T10:56:34.260Z,10.20
2022-12-09T10:59:18.744Z,9.97
2022-12-09T11:01:53.045Z,9.27
2022-12-09T11:04:27.287Z,9.37
2022-12-09T11:07:00.248Z,9.43
2022-12-09T11:09:34.660Z,10.30
2022-12-09T11:12:05.680Z,12.10
2022-12-09T11:14:37.609Z,10.70
2022-12-09T11:17:16.505Z,11.43
2022-12-09T11:19:49.710Z,12.57
2022-12-09T11:22:28.509Z,10.40
2022-12-09T11:25:13.065Z,10.60
2022-12-09T11:27:44.073Z,14.00
2022-12-09T11:30:16.762Z,14.00
2022-12-09T11:33:02.237Z,13.27
2022-12-09T11:35:40.480Z,11.17
2022-12-09T11:38:22.489Z,11.73
2022-12-09T11:41:01.890Z,10.33
2022-12-09T11:43:41.529Z,9.80
2022-12-09T11:46:19.409Z,9.40
2022-12-09T11:48:54.810Z,9.83
2022-12-09T11:51:28.490Z,11.47
2022-12-09T11:54:03.646Z,8.77
2022-12-09T11:56:32.057Z,9.77
2022-12-09T11:59:04.406Z,9.37
2022-12-09T12:01:44.397Z,9.53
2022-12-09T12:04:16.375Z,11.77
2022-12-09T12:06:56.906Z,9.33
2022-12-09T12:09:41.536Z,10.03
2022-12-09T12:12:23.650Z,9.07
2022-12-09T12:14:58.564Z,7.93
2022-12-09T12:17:37.688Z,8.37
2022-12-09T12:20:14.547Z,8.97
2022-12-09T12:23:17.476Z,9.67
2022-12-09T12:25:55.939Z,10.50
2022-12-09T12:28:45.858Z,9.83
2022-12-09T12:31:27.226Z,9.67
2022-12-09T12:34:24.027Z,11.17
2022-12-09T12:37:02.099Z,8.20
2022-12-09T12:39:49.188Z,9.40
2022-12-09T12:42:31.281Z,10.97
2022-12-09T12:45:21.652Z,8.60
2022-12-09T12:47:56.468Z,8.93
2022-12-09T12:50:35.363Z,10.33
2022-12-09T12:53:13.364Z,9.57
2022-12-09T12:55:51.278Z,10.17
2022-12-09T12:58:34.634Z,9.10
2022-12-09T13:01:08.640Z,8.90
2022-12-09T13:03:53.040Z,9.57
2022-12-09T13:06:25.111Z,12.30
2022-12-09T13:09:02.695Z,10.70
2022-12-09T13:11:42.076Z,9.70
2022-12-09T13:14:17.183Z,10.93
2022-12-09T13:16:47.108Z,9.70
2022-12-09T13:19:20.132Z,10.90
2022-12-09T13:21:48.968Z,12.63
2022-12-09T13:24:31.101Z,10.80
2022-12-09T13:27:10.755Z,9.53
2022-12-09T13:29:45.225Z,9.23
2022-12-09T13:32:32.841Z,10.67
2022-12-09T13:35:08.021Z,10.83
2022-12-09T13:37:58.361Z,9.17
2022-12-09T13:40:42.018Z,11.30
2022-12-09T13:43:22.627Z,10.20
2022-12-09T13:45:55.136Z,8.87
2022-12-09T13:48:44.086Z,8.60
2022-12-09T13:51:13.533Z,10.57
2022-12-09T13:53:50.488Z,9.57
2022-12-09T13:56:26.963Z,9.90
2022-12-09T13:59:40.075Z,8.47
2022-12-09T14:02:23.387Z,8.20
2022-12-09T14:05:11.553Z,8.53
2022-12-09T14:07:44.024Z,10.13
2022-12-09T14:10:36.964Z,9.93
2022-12-09T14:13:22.729Z,9.80
2022-12-09T14:16:18.537Z,10.83
2022-12-09T14:18:46.884Z,8.27
2022-12-09T14:21:33.455Z,8.57
2022-12-09T14:24:36.842Z,8.93
2022-12-09T14:27:19.921Z,10.50
2022-12-09T14:29:51.985Z,48.00
2022-12-09T14:32:54.276Z,22.23
2022-12-09T14:35:28.958Z,10.20
2022-12-09T14:38:07.503Z,9.50
2022-12-09T14:40:57.840Z,9.47
2022-12-09T14:43:39.860Z,8.83
2022-12-09T14:46:21.664Z,10.10
2022-12-09T14:48:56.187Z,12.50
2022-12-09T14:51:26.577Z,10.67
2022-12-09T14:53:57.782Z,11.40
2022-12-09T14:56:26.728Z,11.60
2022-12-09T14:58:59.668Z,9.40
2022-12-09T15:01:27.613Z,10.93
2022-12-09T15:03:58.837Z,9.73
2022-12-09T15:06:28.241Z,9.33
2022-12-09T15:08:58.326Z,10.60
2022-12-09T15:11:31.221Z,10.20
2022-12-09T15:14:22.322Z,15.60
2022-12-09T15:16:51.114Z,9.87
2022-12-09T15:19:58.243Z,10.77
2022-12-09T15:22:21.803Z,12.13
2022-12-09T15:24:51.171Z,9.90
2022-12-09T15:27:21.483Z,9.43
2022-12-09T15:29:49.793Z,8.97
2022-12-09T15:32:21.734Z,9.73
2022-12-09T15:34:51.145Z,9.63
2022-12-09T15:37:23.086Z,11.13
2022-12-09T15:40:00.821Z,10.70
2022-12-09T15:42:30.805Z,10.60
2022-12-09T15:45:04.416Z,12.10
2022-12-09T15:47:39.761Z,13.90
2022-12-09T15:50:18.099Z,14.90
2022-12-09T15:52:50.923Z,12.93
2022-12-09T15:55:21.528Z,14.83
2022-12-09T15:57:51.621Z,13.60
2022-12-09T16:00:20.335Z,16.53
2022-12-09T16:02:50.206Z,14.03
2022-12-09T16:05:25.592Z,12.37
2022-12-09T16:07:58.719Z,12.20
2022-12-09T16:10:27.606Z,13.80
2022-12-09T16:13:07.831Z,14.90
2022-12-09T16:15:45.956Z,12.93
2022-12-09T16:18:18.081Z,11.97
2022-12-09T16:20:58.744Z,15.10
2022-12-09T16:23:27.374Z,16.57
2022-12-09T16:26:04.894Z,14.73
2022-12-09T16:28:35.116Z,13.37
2022-12-09T16:31:16.399Z,14.47
2022-12-09T16:33:49.300Z,15.67
2022-12-09T16:36:21.923Z,15.40
2022-12-09T16:39:32.159Z,15.13
2022-12-09T16:42:02.926Z,14.17
2022-12-09T16:44:34.060Z,14.43
2022-12-09T16:47:13.991Z,14.60
2022-12-09T16:49:45.373Z,14.27
2022-12-09T16:52:16.687Z,15.10
2022-12-09T16:54:51.031Z,14.80
2022-12-09T16:57:23.565Z,16.13
2022-12-09T16:59:57.076Z,23.20
2022-12-09T17:03:01.186Z,33.77
2022-12-09T17:05:31.279Z,19.87
2022-12-09T17:08:04.279Z,16.93
2022-12-09T17:10:36.656Z,15.67
2022-12-09T17:13:24.643Z,16.73
2022-12-09T17:16:02.949Z,16.03
2022-12-09T17:18:32.532Z,16.03
2022-12-09T17:21:08.568Z,19.50
2022-12-09T17:26:40.810Z,19.37
2022-12-09T17:29:13.077Z,18.50
2022-12-09T17:31:43.555Z,19.07
2022-12-09T17:34:15.660Z,15.10
2022-12-09T17:36:50.236Z,15.33
2022-12-09T17:39:27.830Z,17.93
2022-12-09T17:42:19.919Z,15.87
2022-12-09T17:44:51.024Z,17.57
2022-12-09T17:47:22.535Z,16.37
2022-12-09T17:49:55.455Z,16.20
2022-12-09T17:52:33.341Z,15.97
2022-12-09T17:55:08.368Z,17.23
2022-12-09T17:57:39.464Z,17.63
2022-12-09T18:00:13.086Z,16.67
2022-12-09T18:02:46.315Z,38.20
2022-12-09T18:05:16.087Z,17.63
2022-12-09T18:07:49.275Z,18.40
2022-12-09T18:10:27.641Z,18.87
2022-12-09T18:13:14.427Z,21.40
2022-12-09T18:15:43.380Z,20.50
2022-12-09T18:18:13.743Z,17.53
2022-12-09T18:20:43.761Z,21.77
2022-12-09T18:23:14.583Z,19.60
2022-12-09T18:25:45.417Z,19.73
2022-12-09T18:28:30.722Z,19.23
2022-12-09T18:31:00.349Z,18.60
2022-12-09T18:33:30.236Z,17.87
2022-12-09T18:36:01.966Z,17.53
2022-12-09T18:38:34.935Z,18.03
2022-12-09T18:44:14.073Z,20.00
2022-12-09T18:50:25.689Z,17.13
2022-12-09T18:53:00.041Z,16.33
2022-12-09T19:48:34.853Z,19.93
2022-12-09T22:04:37.992Z,23.73
2022-12-09T22:32:49.197Z,25.97
2022-12-09T22:37:42.539Z,25.07
2022-12-09T22:41:45.345Z,25.00
